createdAt,value
2018-09-21T00:01:45.721Z,70.90
2018-09-21T00:04:15.730Z,71.00
2018-09-21T00:06:45.835Z,71.10
2018-09-21T00:09:15.906Z,71.20
2018-09-21T00:11:45.898Z,71.30
2018-09-21T00:14:15.963Z,71.40
2018-09-21T00:16:45.975Z,71.60
2018-09-21T00:19:16.057Z,71.70
2018-09-21T00:21:46.273Z,71.80
2018-09-21T00:24:16.269Z,72.10
2018-09-21T00:26:46.391Z,72.20
2018-09-21T00:29:16.489Z,72.40
2018-09-21T00:31:46.649Z,72.50
2018-09-21T00:34:16.955Z,72.60
2018-09-21T00:36:47.098Z,72.70
2018-09-21T00:39:17.143Z,72.90
2018-09-21T00:41:47.877Z,72.90
2018-09-21T00:44:18.058Z,73.10
2018-09-21T00:46:48.233Z,73.20
2018-09-21T00:49:18.275Z,73.30
2018-09-21T00:51:48.403Z,73.50
2018-09-21T00:54:18.475Z,73.60
2018-09-21T00:56:48.545Z,73.70
2018-09-21T00:59:18.557Z,73.70
2018-09-21T01:01:48.608Z,74.00
2018-09-21T01:04:18.569Z,74.00
2018-09-21T01:06:48.856Z,74.20
2018-09-21T01:09:18.933Z,74.30
2018-09-21T01:11:48.995Z,74.50
2018-09-21T01:14:19.164Z,74.60
2018-09-21T01:16:49.251Z,74.70
2018-09-21T01:19:19.368Z,74.80
2018-09-21T01:21:49.352Z,74.90
2018-09-21T01:24:19.387Z,74.90
2018-09-21T01:26:49.453Z,75.00
2018-09-21T01:29:19.516Z,75.10
2018-09-21T01:31:49.574Z,75.20
2018-09-21T01:34:19.682Z,76.10
2018-09-21T01:36:49.715Z,75.30
2018-09-21T01:39:19.778Z,75.40
2018-09-21T01:41:49.840Z,75.50
2018-09-21T01:44:20.990Z,75.60
2018-09-21T01:46:50.994Z,75.60
2018-09-21T01:49:21.019Z,75.80
2018-09-21T01:51:51.310Z,75.80
2018-09-21T01:54:21.406Z,76.00
2018-09-21T01:56:51.576Z,76.10
2018-09-21T01:59:21.681Z,76.30
2018-09-21T02:01:51.725Z,76.40
2018-09-21T02:04:25.856Z,76.60
2018-09-21T02:06:55.832Z,76.70
2018-09-21T02:09:25.983Z,76.80
2018-09-21T02:11:55.997Z,76.90
2018-09-21T02:14:26.030Z,77.10
2018-09-21T02:16:56.256Z,77.10
2018-09-21T02:19:26.346Z,77.20
2018-09-21T02:21:56.622Z,77.30
2018-09-21T02:24:26.608Z,77.30
2018-09-21T02:26:56.680Z,77.50
2018-09-21T02:29:26.698Z,77.50
2018-09-21T02:31:56.736Z,77.50
2018-09-21T02:34:26.750Z,77.60
2018-09-21T02:36:56.902Z,78.40
2018-09-21T02:39:27.151Z,77.80
2018-09-21T02:41:57.351Z,77.70
2018-09-21T02:44:27.330Z,77.80
2018-09-21T02:46:57.356Z,77.90
2018-09-21T02:49:27.602Z,77.90
2018-09-21T02:51:57.610Z,78.00
2018-09-21T02:54:27.719Z,78.00
2018-09-21T02:56:57.893Z,78.00
2018-09-21T02:59:27.874Z,78.00
2018-09-21T03:01:58.934Z,78.10
2018-09-21T03:04:29.056Z,78.10
2018-09-21T03:06:59.106Z,78.10
2018-09-21T03:09:29.394Z,78.30
2018-09-21T03:11:59.444Z,78.20
2018-09-21T03:14:29.604Z,78.30
2018-09-21T03:16:59.654Z,78.30
2018-09-21T03:19:29.752Z,78.50
2018-09-21T03:21:59.776Z,78.50
2018-09-21T03:24:29.992Z,78.50
2018-09-21T03:27:00.215Z,78.80
2018-09-21T03:29:30.632Z,78.70
2018-09-21T03:32:01.012Z,78.70
2018-09-21T03:34:31.215Z,78.90
2018-09-21T03:37:01.408Z,78.80
2018-09-21T03:39:31.478Z,78.90
2018-09-21T03:42:01.636Z,79.00
2018-09-21T03:44:31.920Z,79.10
2018-09-21T03:47:02.020Z,79.20
2018-09-21T03:49:32.079Z,79.30
2018-09-21T03:52:02.117Z,79.30
2018-09-21T03:54:32.209Z,79.60
2018-09-21T03:57:02.268Z,79.70
2018-09-21T03:59:32.446Z,79.70
2018-09-21T04:02:02.531Z,79.80
2018-09-21T04:04:32.591Z,79.90
2018-09-21T04:07:03.001Z,80.00
2018-09-21T04:09:33.149Z,80.10
2018-09-21T04:12:03.391Z,80.20
2018-09-21T04:14:33.529Z,80.40
2018-09-21T04:17:03.697Z,80.40
2018-09-21T04:19:33.913Z,80.40
2018-09-21T04:22:04.105Z,80.50
2018-09-21T04:24:34.125Z,80.50
2018-09-21T04:27:04.540Z,80.80
2018-09-21T04:29:34.625Z,80.70
2018-09-21T04:32:04.732Z,80.80
2018-09-21T04:34:34.865Z,81.00
2018-09-21T04:37:05.034Z,81.10
2018-09-21T04:39:35.181Z,81.20
2018-09-21T04:42:05.459Z,82.00
2018-09-21T04:44:35.600Z,81.40
2018-09-21T04:47:05.864Z,81.50
2018-09-21T04:49:35.939Z,81.60
2018-09-21T04:52:06.180Z,81.70
2018-09-21T04:54:36.362Z,81.70
2018-09-21T04:57:06.357Z,81.80
2018-09-21T04:59:36.455Z,82.00
2018-09-21T05:02:06.543Z,81.90
2018-09-21T05:04:38.142Z,81.80
2018-09-21T05:07:08.417Z,82.60
2018-09-21T05:09:38.535Z,82.60
2018-09-21T05:12:08.596Z,81.80
2018-09-21T05:14:38.745Z,82.00
2018-09-21T05:17:08.790Z,81.80
2018-09-21T05:19:38.834Z,81.70
2018-09-21T05:22:09.008Z,81.80
2018-09-21T05:24:39.138Z,81.80
2018-09-21T05:27:09.128Z,81.80
2018-09-21T05:29:39.164Z,81.70
2018-09-21T05:32:09.179Z,81.80
2018-09-21T05:34:39.613Z,81.80
2018-09-21T05:37:09.609Z,81.70
2018-09-21T05:39:39.762Z,81.60
2018-09-21T05:42:09.876Z,81.50
2018-09-21T05:44:39.970Z,81.50
2018-09-21T05:47:10.210Z,81.40
2018-09-21T05:49:40.305Z,81.30
2018-09-21T05:52:11.194Z,81.30
2018-09-21T05:54:41.201Z,81.20
2018-09-21T05:57:11.303Z,81.20
2018-09-21T05:59:41.442Z,81.20
2018-09-21T06:02:11.673Z,81.70
2018-09-21T06:04:41.650Z,81.00
2018-09-21T06:07:11.709Z,80.80
2018-09-21T06:09:41.912Z,80.80
2018-09-21T06:12:11.946Z,80.70
2018-09-21T06:14:41.955Z,80.70
2018-09-21T06:17:12.096Z,80.60
2018-09-21T06:19:42.362Z,80.60
2018-09-21T06:22:12.622Z,80.40
2018-09-21T06:24:42.732Z,80.30
2018-09-21T06:27:13.240Z,80.20
2018-09-21T06:29:43.328Z,80.10
2018-09-21T06:32:13.462Z,80.10
2018-09-21T06:34:43.630Z,80.00
2018-09-21T06:37:13.670Z,79.70
2018-09-21T06:39:43.759Z,79.60
2018-09-21T06:42:13.758Z,79.40
2018-09-21T06:44:43.770Z,79.20
2018-09-21T06:47:13.895Z,79.00
2018-09-21T06:49:44.051Z,78.90
2018-09-21T06:52:14.187Z,79.20
2018-09-21T06:54:44.314Z,78.20
2018-09-21T06:57:14.340Z,77.80
2018-09-21T06:59:44.412Z,77.50
2018-09-21T07:02:14.537Z,77.20
2018-09-21T07:04:44.540Z,77.00
2018-09-21T07:07:14.668Z,77.00
2018-09-21T07:09:44.801Z,76.80
2018-09-21T07:12:14.884Z,76.70
2018-09-21T07:14:45.082Z,76.40
2018-09-21T07:17:15.296Z,76.00
2018-09-21T07:19:45.293Z,76.00
2018-09-21T07:22:15.354Z,75.80
2018-09-21T07:24:45.395Z,75.50
2018-09-21T07:27:15.494Z,75.30
2018-09-21T07:29:45.752Z,75.00
2018-09-21T07:32:15.816Z,74.80
2018-09-21T07:34:45.991Z,74.50
2018-09-21T07:37:16.275Z,73.90
2018-09-21T07:39:46.362Z,73.50
2018-09-21T07:42:16.817Z,73.20
2018-09-21T07:44:46.820Z,72.90
2018-09-21T07:47:16.959Z,73.40
2018-09-21T07:49:47.109Z,72.50
2018-09-21T07:52:17.406Z,72.20
2018-09-21T07:54:47.609Z,71.70
2018-09-21T07:57:17.710Z,70.80
2018-09-21T07:59:47.834Z,70.40
2018-09-21T08:02:17.905Z,70.00
2018-09-21T08:04:48.085Z,69.70
2018-09-21T08:07:18.148Z,69.60
2018-09-21T08:09:48.276Z,69.30
2018-09-21T08:12:18.426Z,69.00
2018-09-21T08:14:48.563Z,68.80
2018-09-21T08:17:18.551Z,68.30
2018-09-21T08:19:48.679Z,68.30
2018-09-21T08:22:18.785Z,68.20
2018-09-21T08:24:48.813Z,67.70
2018-09-21T08:27:19.877Z,67.40
2018-09-21T08:29:50.323Z,67.20
2018-09-21T08:32:21.528Z,67.10
2018-09-21T08:34:51.559Z,67.00
2018-09-21T08:37:21.672Z,66.80
2018-09-21T08:39:51.641Z,66.40
2018-09-21T08:42:21.653Z,66.30
2018-09-21T08:44:51.683Z,65.80
2018-09-21T08:47:21.819Z,65.30
2018-09-21T08:49:51.811Z,65.20
2018-09-21T08:52:21.860Z,64.40
2018-09-21T08:54:51.980Z,64.00
2018-09-21T08:57:22.024Z,63.50
2018-09-21T08:59:52.023Z,63.00
2018-09-21T09:02:22.191Z,62.50
2018-09-21T09:04:52.194Z,61.80
2018-09-21T09:07:22.410Z,61.20
2018-09-21T09:09:52.546Z,60.70
2018-09-21T09:12:22.688Z,60.40
2018-09-21T09:14:52.832Z,60.00
2018-09-21T09:17:23.223Z,59.90
2018-09-21T09:19:53.237Z,59.70
2018-09-21T09:22:23.441Z,59.50
2018-09-21T09:24:53.640Z,59.10
2018-09-21T09:27:23.789Z,58.70
2018-09-21T09:29:53.910Z,58.60
2018-09-21T09:32:23.950Z,58.40
2018-09-21T09:34:54.188Z,58.10
2018-09-21T09:37:24.474Z,58.00
2018-09-21T09:39:54.612Z,57.90
2018-09-21T09:42:24.749Z,57.80
2018-09-21T09:44:54.825Z,57.70
2018-09-21T09:47:24.997Z,57.70
2018-09-21T09:50:07.303Z,57.40
2018-09-21T09:52:37.401Z,57.30
2018-09-21T09:55:07.736Z,57.30
2018-09-21T09:57:38.013Z,57.10
2018-09-21T10:00:09.199Z,57.20
2018-09-21T10:02:39.359Z,57.00
2018-09-21T10:05:09.316Z,55.10
2018-09-21T10:07:39.534Z,54.80
2018-09-21T10:10:09.869Z,54.10
2018-09-21T10:12:39.902Z,53.30
2018-09-21T10:15:10.160Z,52.40
2018-09-21T10:17:40.254Z,51.30
2018-09-21T10:20:10.238Z,50.90
2018-09-21T10:22:40.427Z,50.60
2018-09-21T10:25:10.515Z,50.30
2018-09-21T10:27:40.841Z,50.40
2018-09-21T10:30:10.691Z,50.80
2018-09-21T10:32:40.719Z,50.10
2018-09-21T10:35:10.865Z,50.00
2018-09-21T10:37:40.990Z,49.40
2018-09-21T10:40:11.404Z,49.10
2018-09-21T10:42:41.583Z,49.30
2018-09-21T10:45:11.482Z,49.60
2018-09-21T10:47:41.456Z,49.40
2018-09-21T10:50:11.544Z,49.10
2018-09-21T10:52:41.761Z,48.90
2018-09-21T10:55:11.864Z,48.60
2018-09-21T10:57:42.014Z,47.10
2018-09-21T11:00:12.372Z,46.60
2018-09-21T11:02:42.436Z,46.30
2018-09-21T11:05:12.659Z,45.60
2018-09-21T11:07:42.626Z,45.50
2018-09-21T11:10:12.634Z,46.00
2018-09-21T11:12:42.794Z,46.40
2018-09-21T11:15:13.045Z,45.70
2018-09-21T11:17:43.268Z,45.90
2018-09-21T11:20:13.291Z,45.70
2018-09-21T11:22:43.499Z,45.00
2018-09-21T11:25:13.505Z,45.00
2018-09-21T11:27:43.515Z,44.80
2018-09-21T11:30:13.616Z,45.00
2018-09-21T11:32:44.524Z,45.10
2018-09-21T11:35:14.578Z,45.10
2018-09-21T11:37:44.572Z,45.00
2018-09-21T11:40:14.598Z,44.90
2018-09-21T11:42:44.621Z,44.60
2018-09-21T11:45:14.613Z,44.70
2018-09-21T11:47:44.795Z,43.90
2018-09-21T11:50:14.839Z,44.10
2018-09-21T11:52:44.889Z,43.80
2018-09-21T11:55:14.885Z,43.60
2018-09-21T11:57:45.004Z,42.90
2018-09-21T12:00:15.022Z,41.30
2018-09-21T12:02:45.124Z,40.90
2018-09-21T12:05:15.405Z,40.40
2018-09-21T12:07:45.442Z,39.90
2018-09-21T12:10:15.613Z,40.10
2018-09-21T12:12:45.653Z,40.30
2018-09-21T12:15:15.795Z,40.10
2018-09-21T12:17:45.955Z,40.20
2018-09-21T12:20:16.083Z,40.50
2018-09-21T12:22:46.242Z,41.00
2018-09-21T12:25:16.328Z,40.80
2018-09-21T12:27:46.608Z,41.20
2018-09-21T12:30:16.597Z,40.60
2018-09-21T12:32:46.753Z,40.20
2018-09-21T12:35:16.748Z,40.20
2018-09-21T12:37:46.797Z,39.70
2018-09-21T12:40:16.850Z,39.70
2018-09-21T12:42:46.876Z,39.20
2018-09-21T12:45:17.274Z,39.30
2018-09-21T12:47:47.360Z,39.40
2018-09-21T12:50:17.451Z,39.40
2018-09-21T12:52:47.420Z,39.70
2018-09-21T12:55:17.498Z,39.60
2018-09-21T12:57:47.772Z,39.50
2018-09-21T13:00:17.888Z,39.80
2018-09-21T13:02:48.131Z,39.80
2018-09-21T13:05:18.209Z,39.90
2018-09-21T13:07:48.461Z,40.20
2018-09-21T13:10:19.460Z,40.40
2018-09-21T13:12:49.568Z,40.70
2018-09-21T13:15:19.579Z,40.40
2018-09-21T13:17:49.647Z,40.30
2018-09-21T13:20:19.697Z,39.90
2018-09-21T13:22:49.755Z,39.70
2018-09-21T13:25:19.936Z,39.70
2018-09-21T13:27:49.947Z,39.70
2018-09-21T13:30:20.141Z,39.20
2018-09-21T13:32:50.216Z,38.60
2018-09-21T13:35:20.453Z,38.50
2018-09-21T13:37:50.565Z,38.50
2018-09-21T13:40:21.807Z,39.00
2018-09-21T13:42:51.997Z,38.40
2018-09-21T13:45:21.956Z,38.30
2018-09-21T13:47:52.679Z,38.10
2018-09-21T13:50:23.080Z,37.70
2018-09-21T13:52:53.632Z,38.10
2018-09-21T13:55:23.630Z,38.30
2018-09-21T13:57:53.741Z,38.80
2018-09-21T14:00:23.889Z,39.00
2018-09-21T14:02:53.859Z,39.30
2018-09-21T14:05:24.511Z,39.40
2018-09-21T14:07:54.514Z,39.30
2018-09-21T14:10:24.563Z,39.20
2018-09-21T14:12:54.699Z,39.10
2018-09-21T14:15:25.087Z,39.10
2018-09-21T14:17:55.129Z,39.30
2018-09-21T14:20:25.125Z,39.40
2018-09-21T14:22:55.483Z,39.90
2018-09-21T14:25:25.681Z,40.20
2018-09-21T14:27:55.902Z,40.50
2018-09-21T14:30:26.032Z,40.70
2018-09-21T14:32:56.631Z,41.40
2018-09-21T14:35:26.709Z,42.50
2018-09-21T14:37:56.859Z,43.90
2018-09-21T14:40:27.049Z,44.80
2018-09-21T14:42:57.203Z,45.70
2018-09-21T14:45:28.221Z,46.30
2018-09-21T14:47:58.346Z,47.00
2018-09-21T14:50:28.519Z,47.50
2018-09-21T14:52:58.706Z,48.10
2018-09-21T14:55:28.815Z,48.40
2018-09-21T14:57:58.797Z,48.50
2018-09-21T15:00:28.970Z,48.60
2018-09-21T15:02:59.120Z,49.40
2018-09-21T15:05:29.285Z,49.30
2018-09-21T15:07:59.404Z,48.70
2018-09-21T15:10:29.474Z,48.70
2018-09-21T15:12:59.574Z,48.90
2018-09-21T15:15:29.648Z,48.90
2018-09-21T15:17:59.701Z,48.90
2018-09-21T15:20:29.756Z,48.80
2018-09-21T15:22:59.901Z,48.90
2018-09-21T15:25:30.464Z,49.10
2018-09-21T15:28:00.601Z,49.20
2018-09-21T15:30:30.623Z,50.50
2018-09-21T15:33:00.788Z,57.60
2018-09-21T15:35:30.845Z,79.20
2018-09-21T15:38:01.034Z,89.10
2018-09-21T15:40:31.088Z,92.50
2018-09-21T15:43:02.053Z,95.00
2018-09-21T15:45:32.684Z,96.40
2018-09-21T15:48:02.880Z,97.40
2018-09-21T15:50:32.991Z,98.20
2018-09-21T15:53:03.053Z,98.90
2018-09-21T15:55:33.423Z,99.00
2018-09-21T15:58:03.571Z,99.40
2018-09-21T16:00:33.665Z,99.60
2018-09-21T16:03:03.686Z,99.90
2018-09-21T16:05:33.780Z,99.90
2018-09-21T16:08:03.941Z,99.90
2018-09-21T16:10:34.066Z,99.90
2018-09-21T16:13:04.120Z,99.90
2018-09-21T16:15:34.368Z,99.90
2018-09-21T16:18:04.504Z,99.90
2018-09-21T16:20:34.668Z,99.90
2018-09-21T16:23:04.756Z,99.90
2018-09-21T16:25:35.861Z,99.90
2018-09-21T16:28:05.964Z,99.90
2018-09-21T16:30:36.086Z,99.90
2018-09-21T16:33:06.284Z,99.90
2018-09-21T16:35:36.516Z,99.90
2018-09-21T16:38:06.719Z,99.90
2018-09-21T16:40:37.129Z,99.90
2018-09-21T16:43:07.383Z,99.90
2018-09-21T16:45:37.698Z,99.90
2018-09-21T16:48:07.802Z,99.90
2018-09-21T16:50:37.987Z,99.60
2018-09-21T16:53:08.233Z,99.70
2018-09-21T16:55:38.343Z,99.90
2018-09-21T16:58:08.403Z,99.90
2018-09-21T17:00:38.667Z,99.90
2018-09-21T17:03:08.771Z,99.90
2018-09-21T17:05:39.065Z,99.90
2018-09-21T17:08:09.242Z,99.90
2018-09-21T17:10:39.444Z,99.90
2018-09-21T17:13:09.537Z,99.90
2018-09-21T17:15:40.617Z,99.90
2018-09-21T17:18:10.703Z,99.90
2018-09-21T17:20:41.083Z,99.90
2018-09-21T17:23:11.225Z,99.90
2018-09-21T17:25:41.694Z,99.90
2018-09-21T17:28:13.106Z,99.90
2018-09-21T17:30:43.339Z,99.90
2018-09-21T17:33:13.475Z,99.90
2018-09-21T17:35:45.738Z,99.90
2018-09-21T17:38:15.949Z,99.90
2018-09-21T17:40:46.176Z,99.90
2018-09-21T17:43:16.175Z,99.90
2018-09-21T17:45:46.296Z,99.90
2018-09-21T17:48:16.462Z,99.90
2018-09-21T17:50:46.696Z,99.90
2018-09-21T17:53:17.110Z,99.90
2018-09-21T17:55:47.220Z,99.90
2018-09-21T17:58:17.355Z,99.90
2018-09-21T18:00:47.891Z,99.90
2018-09-21T18:03:17.994Z,99.90
2018-09-21T18:05:48.182Z,99.90
2018-09-21T18:08:18.248Z,99.90
2018-09-21T18:10:48.415Z,99.90
2018-09-21T18:13:18.554Z,99.90
2018-09-21T18:15:48.653Z,99.90
2018-09-21T18:18:18.713Z,99.90
2018-09-21T18:20:48.806Z,99.90
2018-09-21T18:23:18.807Z,99.90
2018-09-21T18:25:48.939Z,99.90
2018-09-21T18:28:18.935Z,99.90
2018-09-21T18:30:49.091Z,99.90
2018-09-21T18:33:19.123Z,99.90
2018-09-21T18:35:49.438Z,99.90
2018-09-21T18:38:19.512Z,99.90
2018-09-21T18:40:49.535Z,99.90
2018-09-21T18:43:19.596Z,99.90
2018-09-21T18:45:49.750Z,99.90
2018-09-21T18:48:20.175Z,99.90
2018-09-21T18:50:50.614Z,99.90
2018-09-21T18:53:20.720Z,99.90
2018-09-21T18:55:51.188Z,99.90
2018-09-21T18:58:22.326Z,99.90
2018-09-21T19:00:52.386Z,99.90
2018-09-21T19:03:22.555Z,99.90
2018-09-21T19:05:52.892Z,99.90
2018-09-21T19:08:22.900Z,99.90
2018-09-21T19:10:53.104Z,99.90
2018-09-21T19:13:23.236Z,99.90
2018-09-21T19:15:53.609Z,99.90
2018-09-21T19:18:23.942Z,99.90
2018-09-21T19:20:54.130Z,99.90
2018-09-21T19:23:24.184Z,99.90
2018-09-21T19:25:54.958Z,99.90
2018-09-21T19:28:25.122Z,99.90
2018-09-21T19:30:55.263Z,99.90
2018-09-21T19:33:25.353Z,99.90
2018-09-21T19:35:55.766Z,99.90
2018-09-21T19:38:25.908Z,99.90
2018-09-21T19:40:56.055Z,99.90
2018-09-21T19:43:26.072Z,99.90
2018-09-21T19:45:57.007Z,99.90
2018-09-21T19:48:27.515Z,99.90
2018-09-21T19:50:57.710Z,99.90
2018-09-21T19:53:28.434Z,99.90
2018-09-21T19:55:59.044Z,99.90
2018-09-21T19:58:29.142Z,99.90
2018-09-21T20:00:59.589Z,99.90
2018-09-21T20:03:29.757Z,99.90
2018-09-21T20:05:59.779Z,99.90
2018-09-21T20:08:30.069Z,99.90
2018-09-21T20:11:00.267Z,99.90
2018-09-21T20:13:30.450Z,99.90
2018-09-21T20:16:00.782Z,99.90
2018-09-21T20:18:31.017Z,99.90
2018-09-21T20:21:01.258Z,99.90
2018-09-21T20:23:31.359Z,99.90
2018-09-21T20:26:01.507Z,99.90
2018-09-21T20:28:31.543Z,99.90
2018-09-21T20:31:06.858Z,99.90
2018-09-21T20:33:37.593Z,99.90
2018-09-21T20:36:07.776Z,99.90
2018-09-21T20:38:37.911Z,99.90
2018-09-21T20:41:08.239Z,99.90
2018-09-21T20:43:38.301Z,99.90
2018-09-21T20:46:08.765Z,99.90
2018-09-21T20:48:38.809Z,99.90
2018-09-21T20:51:08.939Z,99.90
2018-09-21T20:53:39.041Z,99.90
2018-09-21T20:56:09.177Z,99.90
2018-09-21T20:58:39.399Z,99.90
2018-09-21T21:01:09.793Z,99.90
2018-09-21T21:03:39.875Z,99.90
2018-09-21T21:06:10.373Z,99.90
2018-09-21T21:08:40.543Z,99.90
2018-09-21T21:11:10.685Z,99.90
2018-09-21T21:13:40.733Z,99.90
2018-09-21T21:16:10.983Z,99.90
2018-09-21T21:18:41.059Z,99.90
2018-09-21T21:21:11.279Z,99.90
2018-09-21T21:23:41.463Z,99.90
2018-09-21T21:26:11.571Z,99.90
2018-09-21T21:28:41.600Z,99.90
2018-09-21T21:31:11.738Z,99.90
2018-09-21T21:33:41.755Z,99.90
2018-09-21T21:36:11.800Z,99.90
2018-09-21T21:38:41.987Z,99.90
2018-09-21T21:41:12.099Z,99.90
2018-09-21T21:43:42.400Z,99.90
2018-09-21T21:46:12.480Z,99.90
2018-09-21T21:48:42.566Z,99.90
2018-09-21T21:51:12.729Z,99.90
2018-09-21T21:53:43.011Z,99.90
2018-09-21T21:56:13.025Z,99.90
2018-09-21T21:58:43.394Z,99.90
2018-09-21T22:01:18.832Z,99.90
2018-09-21T22:03:48.898Z,99.90
2018-09-21T22:06:19.118Z,99.90
2018-09-21T22:08:49.212Z,99.90
2018-09-21T22:11:24.615Z,99.90
2018-09-21T22:13:59.974Z,99.90
2018-09-21T22:16:30.120Z,99.90
2018-09-21T22:19:00.261Z,99.90
2018-09-21T22:21:31.289Z,99.90
2018-09-21T22:24:01.592Z,99.90
2018-09-21T22:26:32.217Z,99.90
2018-09-21T22:29:02.350Z,99.90
2018-09-21T22:31:32.455Z,99.90
2018-09-21T22:34:02.635Z,99.90
2018-09-21T22:36:32.657Z,99.90
2018-09-21T22:39:02.846Z,99.90
2018-09-21T22:41:32.974Z,99.90
2018-09-21T22:44:03.158Z,99.90
2018-09-21T22:46:33.394Z,99.90
2018-09-21T22:49:05.846Z,99.90
2018-09-21T22:51:35.856Z,99.90
2018-09-21T22:54:06.164Z,99.90
2018-09-21T22:56:36.180Z,99.90
2018-09-21T22:59:06.320Z,99.90
2018-09-21T23:01:36.563Z,99.90
2018-09-21T23:04:07.060Z,99.90
2018-09-21T23:06:37.368Z,99.90
2018-09-21T23:09:11.039Z,99.90
2018-09-21T23:11:42.230Z,99.90
2018-09-21T23:14:12.380Z,99.90
2018-09-21T23:16:42.436Z,99.90
2018-09-21T23:19:12.597Z,99.90
2018-09-21T23:21:42.657Z,99.90
2018-09-21T23:24:12.690Z,99.90
2018-09-21T23:26:42.843Z,99.90
2018-09-21T23:29:12.993Z,99.90
2018-09-21T23:31:43.363Z,99.90
2018-09-21T23:34:13.380Z,99.90
2018-09-21T23:36:43.374Z,99.90
2018-09-21T23:39:13.450Z,99.90
2018-09-21T23:41:43.702Z,99.90
2018-09-21T23:44:13.816Z,99.90
2018-09-21T23:46:43.815Z,99.90
2018-09-21T23:49:13.833Z,99.90
2018-09-21T23:51:43.971Z,99.90
2018-09-21T23:54:13.962Z,99.90
2018-09-21T23:56:44.006Z,99.90
2018-09-21T23:59:14.207Z,99.90
